EmailTwitter


Surface observations / France / LFBO (07630)

Regions: Quebec | Canada | USA | Europe | France | UK | Elsewhere
Station
Display
Info & Location for LFBO (07630) | Help decoding METAR

Weather Conditions observed on 2017/05/25 at 10:00 UTC at TOULOUSE/BLAGNAC, FR (LFBO)

Temperature: 26.0 Celsius.

Dewpoint: 16.0 Celsius.

Relative Humidity: 54%

Humidex: 31.

Winds: Variable at 2 km/h or 1 knots.

Mean Sea level Pressure: 101.60 kilopascals.

Coded METAR:

LFBO 251000Z AUTO VRB01KT CAVOK 26/16 Q1016 NOSIG=